Time;durP1;ratioP1;P1;durP2;ratioP2;P2;SDS_P1;SDS_P2;PMS_P1;PMS_P2;Temp;Humidity;BMP_temperature;BMP_pressure;BME280_temperature;BME280_humidity;BME280_pressure;Samples;Min_cycle;Max_cycle;Signal;HPM_P1;HPM_P2
2023/10/18 00:01:01;;;;;;;9.93;4.60;;;;;;;6.24;94.03;100807.47;5054591;28;20044;-69
2023/10/18 00:03:29;;;;;;;5.05;3.92;;;;;;;6.21;94.05;100802.31;5058754;28;20043;-68
2023/10/18 00:06:00;;;;;;;7.85;3.67;;;;;;;6.20;93.94;100799.75;5051082;28;20511;-68
2023/10/18 00:08:26;;;;;;;7.35;3.72;;;;;;;6.17;94.10;100797.97;5058305;28;20051;-68
2023/10/18 00:10:53;;;;;;;6.50;4.00;;;;;;;6.17;94.39;100812.53;5055121;28;20119;-69
2023/10/18 00:13:22;;;;;;;6.25;4.10;;;;;;;6.16;94.85;100809.13;5058296;28;20033;-68
2023/10/18 00:16:40;;;;;;;7.93;4.18;;;;;;;6.17;94.19;100797.97;5056260;28;20035;-68
2023/10/18 00:22:27;;;;;;;5.40;3.90;;;;;;;6.16;94.56;100788.59;5045984;28;20040;-68
2023/10/18 00:24:53;;;;;;;5.85;3.92;;;;;;;6.16;94.66;100793.72;5052261;28;20731;-68
2023/10/18 00:27:18;;;;;;;4.93;3.50;;;;;;;6.16;94.70;100787.72;5055323;28;20099;-68
2023/10/18 00:29:43;;;;;;;6.00;3.80;;;;;;;6.15;94.26;100781.72;5055804;28;20090;-68
2023/10/18 00:32:10;;;;;;;5.78;3.50;;;;;;;6.16;94.15;100785.16;5055140;28;20040;-68
2023/10/18 00:34:36;;;;;;;4.45;3.25;;;;;;;6.13;94.32;100775.72;5057761;28;20033;-68
2023/10/18 00:37:01;;;;;;;9.10;3.20;;;;;;;6.13;94.21;100790.25;5061470;28;20671;-68
2023/10/18 00:39:27;;;;;;;5.65;3.20;;;;;;;6.10;93.94;100791.09;5056612;28;20053;-68
2023/10/18 00:42:23;;;;;;;6.82;3.65;;;;;;;6.07;94.67;100801.31;5057981;28;20044;-68
2023/10/18 00:44:41;;;;;;;5.60;4.13;;;;;;;6.06;94.45;100797.03;5061145;28;20048;-68
2023/10/18 00:47:10;;;;;;;7.55;3.50;;;;;;;6.06;94.95;100794.47;5065480;28;20627;-68
2023/10/18 00:49:36;;;;;;;5.25;3.72;;;;;;;6.07;94.81;100796.19;5060670;28;20040;-68
2023/10/18 00:52:02;;;;;;;7.20;3.47;;;;;;;6.05;94.83;100797.03;5057255;28;20036;-68
2023/10/18 00:54:29;;;;;;;6.22;3.28;;;;;;;6.04;94.37;100796.16;5060520;28;20074;-68
2023/10/18 00:56:55;;;;;;;5.13;3.10;;;;;;;6.03;94.87;100794.44;5037802;28;20059;-68
2023/10/18 00:59:21;;;;;;;5.32;3.22;;;;;;;6.03;94.80;100789.28;5056030;28;20071;-68
2023/10/18 01:01:58;;;;;;;6.03;3.55;;;;;;;6.05;94.45;100789.31;5060412;28;20048;-68
2023/10/18 01:04:25;;;;;;;4.72;3.35;;;;;;;6.06;94.16;100780.75;5056089;28;20838;-68
2023/10/18 01:06:50;;;;;;;6.63;3.42;;;;;;;6.03;94.09;100775.59;5061047;28;20724;-68
2023/10/18 01:09:17;;;;;;;6.03;3.15;;;;;;;6.02;94.92;100777.31;5056654;28;20043;-68
2023/10/18 01:11:46;;;;;;;5.03;2.90;;;;;;;6.02;94.71;100773.91;5058832;28;20032;-62
2023/10/18 01:14:16;;;;;;;5.55;3.40;;;;;;;6.09;94.33;100762.84;5058391;28;20511;-62
2023/10/18 01:16:42;;;;;;;6.05;3.10;;;;;;;6.16;93.28;100755.22;5058538;28;20040;-63
2023/10/18 01:19:08;;;;;;;5.15;3.22;;;;;;;6.17;93.14;100750.97;5037787;28;20462;-64
2023/10/18 01:21:34;;;;;;;4.22;3.10;;;;;;;6.15;93.30;100750.06;5055123;28;20154;-63
2023/10/18 01:24:00;;;;;;;5.28;3.22;;;;;;;6.15;93.31;100747.50;5055477;28;20036;-64
2023/10/18 01:26:27;;;;;;;6.95;3.10;;;;;;;6.15;93.38;100748.34;5055933;28;20036;-68
2023/10/18 01:28:55;;;;;;;4.75;3.30;;;;;;;6.15;93.46;100739.78;5054761;28;20044;-68
2023/10/18 01:31:22;;;;;;;6.53;3.22;;;;;;;6.14;93.67;100743.22;5052056;28;20045;-68
2023/10/18 01:33:50;;;;;;;5.40;3.10;;;;;;;6.13;93.34;100738.94;5062955;28;20146;-68
2023/10/18 01:36:18;;;;;;;5.70;3.10;;;;;;;6.12;93.47;100738.06;5053059;28;20039;-68
2023/10/18 01:38:48;;;;;;;6.00;3.00;;;;;;;6.09;93.75;100735.47;5058151;28;20372;-68
2023/10/18 01:41:25;;;;;;;6.00;3.28;;;;;;;6.08;93.33;100740.59;5038716;28;20151;-68
2023/10/18 01:44:05;;;;;;;5.72;3.33;;;;;;;6.12;93.81;100726.94;5042320;28;20036;-68
2023/10/18 01:46:31;;;;;;;6.40;3.20;;;;;;;6.12;93.63;100726.94;5061476;28;20044;-68
2023/10/18 01:48:57;;;;;;;6.00;3.45;;;;;;;6.10;93.75;100726.94;5059862;28;20044;-68
2023/10/18 01:51:23;;;;;;;7.20;2.60;;;;;;;6.09;93.72;100726.91;5053562;28;20099;-68
2023/10/18 01:53:50;;;;;;;7.20;3.30;;;;;;;6.10;93.62;100711.53;5057395;28;20035;-68
2023/10/18 01:56:17;;;;;;;7.70;3.47;;;;;;;6.14;93.50;100700.44;5057339;28;20032;-68
2023/10/18 01:58:43;;;;;;;5.45;3.05;;;;;;;6.15;93.58;100702.16;5059664;28;20165;-68
2023/10/18 02:01:13;;;;;;;5.18;3.15;;;;;;;6.14;93.79;100704.75;5054946;28;20048;-68
2023/10/18 02:03:39;;;;;;;3.55;2.78;;;;;;;6.10;93.83;100696.16;5054991;28;20061;-67
2023/10/18 02:06:06;;;;;;;6.72;3.47;;;;;;;6.10;93.58;100693.59;5042222;28;20143;-68
2023/10/18 02:08:35;;;;;;;4.35;2.85;;;;;;;6.09;93.60;100689.28;5055898;28;20123;-68
2023/10/18 02:11:05;;;;;;;5.43;3.08;;;;;;;6.08;93.99;100691.84;5055532;28;20123;-68
2023/10/18 02:13:31;;;;;;;4.28;2.97;;;;;;;6.04;93.94;100693.53;5058673;28;20099;-68
2023/10/18 02:15:57;;;;;;;3.95;2.90;;;;;;;6.01;94.21;100684.94;5057143;28;20665;-69
2023/10/18 02:18:24;;;;;;;5.88;3.45;;;;;;;6.01;94.44;100678.09;5055657;28;20032;-68
2023/10/18 02:20:52;;;;;;;5.20;3.10;;;;;;;6.03;93.93;100675.53;5058408;28;20112;-69
2023/10/18 02:23:23;;;;;;;4.95;3.25;;;;;;;6.04;94.24;100675.56;5051081;28;20687;-69
2023/10/18 02:25:49;;;;;;;4.78;3.15;;;;;;;6.04;93.88;100677.28;5056214;28;20090;-68
2023/10/18 02:28:23;;;;;;;6.57;3.70;;;;;;;6.02;94.63;100678.97;5057226;28;20215;-68
2023/10/18 02:30:57;;;;;;;4.13;2.50;;;;;;;6.02;94.26;100673.84;5057688;28;20123;-68
2023/10/18 02:33:42;;;;;;;4.90;3.27;;;;;;;6.00;94.07;100690.91;5057783;28;20553;-68
2023/10/18 02:36:11;;;;;;;5.22;3.05;;;;;;;5.99;94.56;100684.91;5053755;28;20327;-68
2023/10/18 02:38:38;;;;;;;5.18;3.28;;;;;;;5.96;94.79;100682.31;5040489;28;20515;-68
2023/10/18 02:41:15;;;;;;;4.30;3.22;;;;;;;5.95;94.10;100687.44;5055085;28;20069;-68
2023/10/18 02:43:48;;;;;;;4.05;2.45;;;;;;;5.91;94.21;100675.44;5054171;28;20048;-68
2023/10/18 02:46:16;;;;;;;6.82;3.30;;;;;;;5.88;94.92;100678.84;5056804;28;20452;-68
2023/10/18 02:48:44;;;;;;;5.13;3.22;;;;;;;5.85;95.20;100680.50;5056012;28;20037;-68
2023/10/18 02:51:12;;;;;;;4.97;3.00;;;;;;;5.82;95.30;100676.22;5058629;28;20032;-68
2023/10/18 02:53:43;;;;;;;4.18;2.95;;;;;;;5.81;95.24;100678.78;5059751;28;20041;-68
2023/10/18 02:56:20;;;;;;;5.22;2.80;;;;;;;5.79;95.29;100676.19;5053830;28;20043;-68
2023/10/18 02:58:47;;;;;;;5.93;2.78;;;;;;;5.76;95.38;100674.44;5056222;28;20036;-68
2023/10/18 03:01:14;;;;;;;7.47;3.38;;;;;;;5.80;96.02;100667.66;5064440;28;20063;-68
2023/10/18 03:03:40;;;;;;;4.90;3.22;;;;;;;5.84;95.52;100660.84;5056931;28;20494;-68
2023/10/18 03:06:12;;;;;;;6.43;3.42;;;;;;;5.83;95.71;100652.28;5057593;28;20044;-68
2023/10/18 03:08:48;;;;;;;6.70;3.75;;;;;;;5.84;94.98;100653.16;5057759;28;20044;-65
2023/10/18 03:11:14;;;;;;;9.18;4.53;;;;;;;5.83;94.95;100644.59;5056806;28;20036;-64
2023/10/18 03:13:42;;;;;;;3.85;3.08;;;;;;;5.82;95.30;100648.00;5059801;28;20059;-64
2023/10/18 03:18:41;;;;;;;5.18;3.25;;;;;;;5.80;94.92;100649.69;5053475;28;20085;-64
2023/10/18 03:21:08;;;;;;;4.43;3.10;;;;;;;5.78;94.87;100652.22;5056459;28;20272;-64
2023/10/18 03:23:44;;;;;;;7.30;3.75;;;;;;;5.79;94.93;100643.69;5054354;28;20032;-64
2023/10/18 03:26:11;;;;;;;4.65;3.65;;;;;;;5.80;95.43;100642.00;5048599;28;20035;-64
2023/10/18 03:28:40;;;;;;;5.55;3.70;;;;;;;5.88;94.95;100635.22;5056215;28;20055;-64
2023/10/18 03:31:21;;;;;;;4.88;3.30;;;;;;;5.93;94.81;100630.16;5053791;28;20044;-63
2023/10/18 03:33:59;;;;;;;5.20;3.28;;;;;;;5.95;94.82;100623.31;5055860;28;20128;-64
2023/10/18 03:36:26;;;;;;;8.85;3.58;;;;;;;5.93;94.90;100617.31;5050172;28;20040;-64
2023/10/18 03:38:54;;;;;;;4.72;3.25;;;;;;;5.91;94.61;100621.56;5054382;28;20105;-63
2023/10/18 03:41:22;;;;;;;5.03;2.85;;;;;;;5.87;94.68;100620.69;5049616;28;20036;-64
2023/10/18 03:43:49;;;;;;;8.07;3.72;;;;;;;5.83;94.91;100615.53;5053024;28;20509;-64
2023/10/18 03:46:38;;;;;;;6.55;3.53;;;;;;;5.81;94.99;100606.97;5054420;28;21659;-64
2023/10/18 03:49:01;;;;;;;6.15;3.90;;;;;;;5.78;95.04;100606.06;5053879;28;20040;-64
2023/10/18 03:51:29;;;;;;;4.05;3.55;;;;;;;5.77;95.73;100603.50;5038213;28;20036;-62
2023/10/18 03:53:55;;;;;;;6.40;3.95;;;;;;;5.78;95.36;100600.94;5058949;28;20093;-61
2023/10/18 03:56:22;;;;;;;6.43;3.70;;;;;;;5.79;95.65;100594.97;5055540;28;20850;-62
2023/10/18 03:59:00;;;;;;;5.72;3.88;;;;;;;5.83;94.77;100585.59;5049483;28;20036;-61
2023/10/18 04:01:39;;;;;;;5.53;3.70;;;;;;;5.83;95.33;100584.75;5058095;28;20036;-62
2023/10/18 04:04:05;;;;;;;5.32;3.38;;;;;;;5.83;95.45;100585.59;5052031;28;20410;-62
2023/10/18 04:06:35;;;;;;;6.10;3.50;;;;;;;5.87;94.99;100578.81;5054731;28;20032;-62
2023/10/18 04:09:13;;;;;;;4.38;3.63;;;;;;;5.92;94.60;100570.28;5056098;28;20032;-62
2023/10/18 04:11:38;;;;;;;7.82;3.53;;;;;;;5.94;94.64;100568.59;5060601;28;20079;-62
2023/10/18 04:14:04;;;;;;;5.05;3.40;;;;;;;5.92;94.42;100560.03;5060738;28;20262;-62
2023/10/18 04:16:30;;;;;;;5.25;3.78;;;;;;;5.92;94.31;100560.03;5060075;28;20498;-62
2023/10/18 04:18:56;;;;;;;6.55;3.65;;;;;;;5.91;95.13;100553.16;5062709;28;20056;-61
2023/10/18 04:21:25;;;;;;;6.35;4.10;;;;;;;5.90;94.62;100551.47;5056169;28;20516;-62
2023/10/18 04:23:54;;;;;;;5.57;3.15;;;;;;;5.90;94.98;100548.03;5060915;28;20031;-62
2023/10/18 04:26:19;;;;;;;8.43;4.75;;;;;;;6.00;94.62;100539.53;5053530;28;20070;-62
2023/10/18 04:28:45;;;;;;;6.68;4.00;;;;;;;6.07;93.25;100520.78;5053540;28;20048;-62
2023/10/18 04:31:14;;;;;;;9.25;4.70;;;;;;;6.12;93.25;100519.97;5056857;28;20036;-62
2023/10/18 04:33:49;;;;;;;8.98;5.30;;;;;;;6.18;92.80;100519.13;5059251;28;20660;-62
2023/10/18 04:36:15;;;;;;;7.93;5.25;;;;;;;6.23;92.49;100523.44;5056640;28;20036;-62
2023/10/18 04:38:51;;;;;;;6.57;5.05;;;;;;;6.23;92.47;100522.56;5051813;28;20033;-62
2023/10/18 04:41:24;;;;;;;8.60;5.10;;;;;;;6.18;92.53;100527.69;5057190;28;20044;-62
2023/10/18 04:43:51;;;;;;;7.00;4.95;;;;;;;6.14;92.99;100525.13;5053738;28;20053;-62
2023/10/18 04:46:26;;;;;;;6.00;4.20;;;;;;;6.09;93.08;100524.22;5056540;28;20040;-62
2023/10/18 04:51:28;;;;;;;8.52;4.25;;;;;;;6.02;93.55;100525.88;5043171;28;20040;-62
2023/10/18 04:53:54;;;;;;;8.40;4.40;;;;;;;6.00;93.66;100522.44;5051574;28;20089;-62
2023/10/18 04:56:20;;;;;;;5.65;4.22;;;;;;;5.99;94.36;100522.47;5057249;28;20090;-62
2023/10/18 04:58:45;;;;;;;7.95;3.90;;;;;;;6.00;94.16;100516.44;5057426;28;20813;-62
2023/10/18 05:01:13;;;;;;;6.72;4.20;;;;;;;6.08;93.83;100507.94;5052903;28;20675;-62
2023/10/18 05:03:43;;;;;;;7.20;4.30;;;;;;;6.10;93.54;100503.69;5056438;28;20106;-62
2023/10/18 05:06:11;;;;;;;6.30;4.18;;;;;;;6.13;93.57;100500.28;5057382;28;20036;-62
2023/10/18 05:08:36;;;;;;;6.95;4.13;;;;;;;6.13;93.60;100501.16;5052915;28;20058;-62
2023/10/18 05:13:48;;;;;;;7.05;4.55;;;;;;;6.12;93.85;100499.44;5059503;28;20035;-62
2023/10/18 05:16:14;;;;;;;7.72;5.07;;;;;;;6.12;93.81;100499.44;5058481;28;20314;-62
2023/10/18 05:18:44;;;;;;;12.45;5.70;;;;;;;6.10;93.77;100488.31;5056159;28;20032;-62
2023/10/18 05:21:20;;;;;;;6.28;4.60;;;;;;;6.11;94.19;100490.00;5059570;28;20557;-62
2023/10/18 05:23:46;;;;;;;7.15;4.45;;;;;;;6.12;93.95;100490.88;5056557;28;20067;-62
2023/10/18 05:26:17;;;;;;;6.07;4.93;;;;;;;6.13;94.09;100490.03;5055430;28;20036;-62
2023/10/18 05:28:47;;;;;;;9.95;5.07;;;;;;;6.17;94.33;100486.63;5056795;28;20036;-60
2023/10/18 05:41:49;;;;;;;7.07;4.82;;;;;;;6.34;93.57;100478.16;5051269;28;20580;-60
2023/10/18 05:44:15;;;;;;;7.53;5.20;;;;;;;6.38;93.22;100476.44;5059179;28;20153;-60
2023/10/18 05:46:41;;;;;;;10.23;5.25;;;;;;;6.39;93.06;100473.03;5054924;28;20032;-60
2023/10/18 05:49:16;;;;;;;7.68;5.50;;;;;;;6.44;93.13;100483.34;5034088;28;20041;-61
2023/10/18 05:54:29;;;;;;;5.57;4.35;;;;;;;6.50;92.23;100478.19;5052807;28;20106;-60
2023/10/18 05:56:56;;;;;;;9.50;5.25;;;;;;;6.53;92.07;100478.19;5052545;28;20429;-61
2023/10/18 05:59:27;;;;;;;10.38;5.32;;;;;;;6.53;91.83;100470.50;5056497;28;20056;-60
2023/10/18 06:01:58;;;;;;;8.98;5.65;;;;;;;6.54;91.79;100467.09;5057934;28;20710;-60
2023/10/18 06:04:29;;;;;;;7.88;4.97;;;;;;;6.53;91.87;100470.50;5046773;28;20036;-60
2023/10/18 06:07:04;;;;;;;7.28;4.93;;;;;;;6.54;91.73;100467.09;5048415;28;20120;-60
2023/10/18 06:09:32;;;;;;;;;;;;;;;6.54;91.90;100467.94;5036435;28;20044;-60
2023/10/18 06:12:00;;;;;;;9.02;4.72;;;;;;;6.58;91.61;100455.97;5058233;28;19930;-60
2023/10/18 06:14:33;;;;;;;6.13;4.47;;;;;;;6.59;91.66;100468.81;5056454;28;20094;-64
2023/10/18 06:17:19;;;;;;;14.15;5.20;;;;;;;6.57;91.52;100450.00;5037851;28;20071;-64
2023/10/18 06:19:45;;;;;;;9.35;5.03;;;;;;;6.60;90.96;100451.69;5054087;28;20041;-62
2023/10/18 06:22:28;;;;;;;8.38;5.22;;;;;;;6.61;91.25;100446.59;5056211;28;20561;-62
2023/10/18 06:24:57;;;;;;;8.55;4.90;;;;;;;6.63;92.00;100454.28;5052351;28;20105;-62
2023/10/18 06:27:23;;;;;;;7.63;4.97;;;;;;;6.65;91.95;100450.00;5056332;28;20028;-62
2023/10/18 06:29:53;;;;;;;8.52;4.75;;;;;;;6.67;91.23;100440.59;5057439;28;20633;-62
2023/10/18 06:35:52;;;;;;;9.85;5.40;;;;;;;6.79;91.45;100448.34;5052384;28;20795;-62
2023/10/18 06:38:22;;;;;;;7.85;5.50;;;;;;;6.83;91.23;100448.31;5056602;28;20032;-62
2023/10/18 06:41:07;;;;;;;7.07;4.20;;;;;;;6.87;91.24;100446.63;5038985;28;20033;-62
2023/10/18 06:44:30;;;;;;;8.90;5.43;;;;;;;6.93;91.35;100440.63;5046296;28;20037;-61
2023/10/18 06:47:01;;;;;;;11.25;5.38;;;;;;;6.98;91.50;100437.22;5058306;28;20048;-62
2023/10/18 06:49:27;;;;;;;10.43;6.05;;;;;;;7.05;91.04;100432.94;5057291;28;20036;-63
2023/10/18 06:51:53;;;;;;;8.75;4.80;;;;;;;7.11;91.10;100435.50;5055132;28;20167;-62
2023/10/18 06:54:38;;;;;;;7.75;4.82;;;;;;;7.16;91.15;100432.13;5058271;28;20131;-63
2023/10/18 06:57:16;;;;;;;11.30;5.85;;;;;;;7.24;91.04;100438.09;5057918;28;20037;-62
2023/10/18 06:59:44;;;;;;;8.60;5.00;;;;;;;7.31;90.76;100436.38;5052873;28;20051;-63
2023/10/18 07:02:12;;;;;;;8.27;5.30;;;;;;;7.38;90.39;100430.41;5049788;28;20048;-63
2023/10/18 07:04:46;;;;;;;8.52;5.45;;;;;;;7.46;90.38;100426.09;5049077;28;20040;-63
2023/10/18 07:07:13;;;;;;;8.20;5.32;;;;;;;7.55;90.19;100420.94;5054144;28;20040;-63
2023/10/18 07:09:42;;;;;;;8.45;5.32;;;;;;;7.63;88.49;100418.34;5053844;28;20068;-63
2023/10/18 07:12:11;;;;;;;10.10;5.68;;;;;;;7.70;88.98;100420.06;5051314;28;20146;-63
2023/10/18 07:14:39;;;;;;;10.30;5.22;;;;;;;7.76;88.94;100408.03;5056546;28;20591;-62
2023/10/18 07:17:04;;;;;;;10.43;6.53;;;;;;;7.82;88.40;100399.44;5054814;28;20036;-62
2023/10/18 07:19:48;;;;;;;8.95;5.13;;;;;;;7.88;88.29;100399.41;5054034;28;20682;-63
2023/10/18 07:22:21;;;;;;;11.25;5.25;;;;;;;7.95;87.39;100398.56;5052563;28;20079;-63
2023/10/18 07:24:53;;;;;;;6.90;5.10;;;;;;;7.99;87.32;100400.22;5054367;28;20553;-63
2023/10/18 07:27:20;;;;;;;9.13;4.93;;;;;;;8.05;87.13;100391.63;5054863;28;20043;-63
2023/10/18 07:29:49;;;;;;;9.77;5.10;;;;;;;8.09;87.03;100375.31;5054116;28;20052;-63
2023/10/18 07:32:20;;;;;;;8.70;5.28;;;;;;;8.16;87.03;100377.00;5032451;28;20145;-63
2023/10/18 07:34:47;;;;;;;9.75;5.45;;;;;;;8.20;86.23;100373.53;5052956;28;20040;-63
2023/10/18 07:37:17;;;;;;;12.02;5.35;;;;;;;8.23;85.26;100374.38;5016136;28;20123;-63
2023/10/18 07:39:50;;;;;;;10.32;5.15;;;;;;;8.30;85.83;100364.91;5048779;28;20040;-63
2023/10/18 07:42:19;;;;;;;10.10;5.13;;;;;;;8.37;85.19;100361.41;5050710;28;20139;-63
2023/10/18 07:44:52;;;;;;;8.45;5.78;;;;;;;8.44;85.69;100350.22;5037689;28;20036;-63
2023/10/18 07:47:32;;;;;;;9.48;5.93;;;;;;;8.50;85.44;100351.06;5052563;28;20151;-63
2023/10/18 07:49:58;;;;;;;10.00;5.60;;;;;;;8.61;84.98;100339.78;5036816;28;20040;-63
2023/10/18 07:52:23;;;;;;;8.77;5.90;;;;;;;8.69;83.47;100322.59;5054026;28;20817;-63
2023/10/18 07:54:49;;;;;;;10.20;6.25;;;;;;;8.80;84.28;100318.19;5052890;28;20041;-63
2023/10/18 07:57:18;;;;;;;11.48;6.03;;;;;;;8.90;83.24;100327.56;5033407;28;20486;-63
2023/10/18 08:00:26;;;;;;;10.85;5.82;;;;;;;8.99;82.96;100304.28;5054807;28;20133;-62
2023/10/18 08:02:51;;;;;;;10.77;5.53;;;;;;;9.04;82.09;100300.78;5050863;28;20143;-63
2023/10/18 08:05:22;;;;;;;10.38;6.18;;;;;;;9.13;81.61;100289.53;5051644;28;20473;-63
2023/10/18 08:11:17;;;;;;;7.50;5.65;;;;;;;9.31;79.08;100283.31;5010101;28;20305;-61
2023/10/18 08:13:46;;;;;;;8.82;5.85;;;;;;;9.41;80.17;100292.66;5033974;28;20574;-68
2023/10/18 08:16:19;;;;;;;12.95;5.57;;;;;;;9.49;80.00;100285.69;5050127;28;20041;-68
2023/10/18 08:18:59;;;;;;;7.35;5.13;;;;;;;9.56;79.49;100271.84;5052907;28;20055;-68
2023/10/18 08:21:29;;;;;;;9.77;5.70;;;;;;;9.64;79.02;100263.16;5047298;28;20083;-69
2023/10/18 08:23:57;;;;;;;8.25;5.90;;;;;;;9.69;78.91;100257.94;5056705;28;20029;-69
2023/10/18 08:26:26;;;;;;;9.05;6.10;;;;;;;9.75;78.47;100260.47;5055260;28;20491;-68
2023/10/18 08:28:53;;;;;;;8.45;5.53;;;;;;;9.87;78.14;100249.97;5038077;28;20090;-68
2023/10/18 08:31:35;;;;;;;10.20;6.28;;;;;;;10.05;77.53;100248.84;5055454;28;20033;-69
2023/10/18 08:34:14;;;;;;;11.02;6.00;;;;;;;10.16;76.75;100226.28;5057983;28;20600;-69
2023/10/18 08:40:06;;;;;;;8.45;5.65;;;;;;;10.21;75.30;100212.44;5052560;28;20052;-68
2023/10/18 08:42:33;;;;;;;8.25;5.78;;;;;;;10.15;76.19;100220.28;5055097;28;20037;-69
2023/10/18 08:45:04;;;;;;;10.55;5.93;;;;;;;10.17;75.70;100222.84;5050137;28;20029;-69
2023/10/18 08:47:34;;;;;;;11.10;6.97;;;;;;;10.35;75.28;100216.53;5036463;28;20040;-70
2023/10/18 08:50:21;;;;;;;9.63;6.05;;;;;;;10.40;74.90;100194.06;5052666;28;20098;-69
2023/10/18 08:52:48;;;;;;;9.02;5.63;;;;;;;10.44;74.63;100193.13;5055664;28;20052;-69
2023/10/18 08:58:00;;;;;;;10.63;5.78;;;;;;;10.63;74.33;100179.84;5057954;28;20493;-69
2023/10/18 09:02:54;;;;;;;9.32;6.18;;;;;;;10.66;73.17;100153.09;5061344;28;20043;-69
2023/10/18 09:05:23;;;;;;;10.48;5.35;;;;;;;10.66;72.14;100138.44;5040853;28;20047;-69
2023/10/18 09:07:53;;;;;;;8.23;5.25;;;;;;;10.73;73.10;100167.63;5054387;28;20063;-69
2023/10/18 09:15:49;;;;;;;9.10;6.13;;;;;;;11.00;72.15;100149.00;5057047;28;20044;-68
2023/10/18 09:22:29;;;;;;;7.82;5.68;;;;;;;11.19;71.41;100141.69;4958800;28;20469;-69
2023/10/18 09:24:55;;;;;;;7.57;5.22;;;;;;;11.28;71.99;100154.44;4972184;28;20589;-69
2023/10/18 09:27:23;;;;;;;6.72;4.78;;;;;;;11.34;71.46;100147.41;5055731;28;20047;-69
2023/10/18 09:29:51;;;;;;;12.77;6.22;;;;;;;11.45;71.37;100139.47;5057341;28;20750;-61
2023/10/18 09:32:32;;;;;;;10.85;5.57;;;;;;;11.52;70.80;100138.44;5060490;28;20512;-61
2023/10/18 09:35:05;;;;;;;8.05;5.20;;;;;;;11.60;69.17;100113.25;5053995;28;20040;-61
2023/10/18 09:41:04;;;;;;;8.38;5.22;;;;;;;11.89;69.07;100118.59;5006587;28;20111;-61
2023/10/18 09:43:31;;;;;;;10.05;5.75;;;;;;;11.94;68.35;100097.75;5040842;28;20036;-61
2023/10/18 09:45:59;;;;;;;9.82;5.38;;;;;;;11.99;68.24;100087.28;5060921;28;20085;-69
2023/10/18 09:52:00;;;;;;;11.90;5.88;;;;;;;11.95;67.20;100055.44;4914265;28;20052;-64
2023/10/18 09:54:25;;;;;;;8.60;5.90;;;;;;;12.01;68.42;100082.91;5059333;28;20025;-64
2023/10/18 09:56:57;;;;;;;9.35;5.82;;;;;;;12.10;68.95;100077.50;5060326;28;20027;-65
2023/10/18 09:59:26;;;;;;;11.77;6.75;;;;;;;12.13;67.99;100056.69;5060140;28;20041;-65
2023/10/18 10:02:08;;;;;;;8.52;6.30;;;;;;;12.17;68.11;100051.38;5059537;28;20099;-64
2023/10/18 10:04:38;;;;;;;9.55;6.03;;;;;;;12.36;67.02;100036.22;5060178;28;20617;-65
2023/10/18 10:09:49;;;;;;;8.38;5.63;;;;;;;12.61;64.99;99994.91;5060497;28;20090;-65
2023/10/18 10:12:18;;;;;;;9.82;5.88;;;;;;;12.78;64.66;99996.13;5055987;28;20055;-64
2023/10/18 10:14:45;;;;;;;9.15;5.90;;;;;;;12.87;64.15;99988.06;5038026;28;20024;-65
2023/10/18 10:17:15;;;;;;;9.23;5.50;;;;;;;12.89;63.66;99970.69;5057159;28;20623;-65
2023/10/18 10:19:48;;;;;;;9.35;5.78;;;;;;;12.95;62.94;99961.88;5054309;28;20041;-64
2023/10/18 10:22:17;;;;;;;11.05;5.75;;;;;;;13.05;63.30;99965.94;5054735;28;20040;-65
2023/10/18 10:24:43;;;;;;;8.00;5.90;;;;;;;13.00;62.47;99952.22;5055644;28;20044;-64
2023/10/18 10:27:27;;;;;;;11.75;5.35;;;;;;;13.00;62.41;99947.91;5057230;28;20041;-64
2023/10/18 10:29:59;;;;;;;11.18;5.72;;;;;;;13.04;62.83;99953.00;5051804;28;20847;-65
2023/10/18 10:32:28;;;;;;;9.80;5.18;;;;;;;13.12;62.90;99946.66;5062809;28;20036;-64
2023/10/18 10:35:16;;;;;;;10.38;5.63;;;;;;;13.23;63.02;99959.31;5038870;28;20064;-65
2023/10/18 10:37:52;;;;;;;7.97;4.95;;;;;;;13.31;62.54;99944.34;5033631;28;20071;-64
2023/10/18 10:43:04;;;;;;;8.43;5.00;;;;;;;13.31;60.54;99898.47;5035248;28;20052;-65
2023/10/18 10:48:31;;;;;;;8.65;4.78;;;;;;;13.52;61.02;99897.75;5018115;28;20071;-64
2023/10/18 10:51:13;;;;;;;10.70;5.30;;;;;;;13.67;60.27;99890.31;5059670;28;20050;-65
2023/10/18 10:53:43;;;;;;;8.25;5.05;;;;;;;13.70;58.72;99853.84;5036513;28;20499;-65
2023/10/18 10:56:18;;;;;;;10.85;5.05;;;;;;;13.77;59.36;99861.38;5035816;28;20045;-64
2023/10/18 11:01:40;;;;;;;10.13;4.80;;;;;;;13.98;58.43;99841.56;5035106;28;20044;-64
2023/10/18 11:04:27;;;;;;;9.20;4.85;;;;;;;13.93;58.22;99841.75;5029674;28;20037;-65
2023/10/18 11:06:57;;;;;;;7.55;4.60;;;;;;;13.93;58.81;99843.47;5034009;28;20046;-65
2023/10/18 11:09:33;;;;;;;7.60;4.80;;;;;;;13.85;59.31;99842.91;5040604;28;20071;-64
2023/10/18 11:12:03;;;;;;;7.05;4.57;;;;;;;13.79;59.24;99840.53;5033914;28;20037;-64
2023/10/18 11:14:30;;;;;;;7.28;4.50;;;;;;;13.82;59.07;99843.88;5037125;28;20376;-65
2023/10/18 11:17:09;;;;;;;9.27;4.60;;;;;;;13.82;59.14;99843.88;5033412;28;20102;-64
2023/10/18 11:19:40;;;;;;;9.18;4.55;;;;;;;14.00;60.00;99855.34;5033922;28;20044;-65
2023/10/18 11:22:06;;;;;;;8.05;4.68;;;;;;;14.11;59.18;99846.25;5032290;28;20044;-65
2023/10/18 11:24:32;;;;;;;6.35;4.38;;;;;;;14.21;59.06;99832.91;5032496;28;20451;-64
2023/10/18 11:26:58;;;;;;;7.95;3.80;;;;;;;14.41;59.01;99831.28;5037198;28;20032;-64
2023/10/18 11:29:26;;;;;;;5.47;4.28;;;;;;;14.45;57.51;99800.81;5036019;28;20075;-64
2023/10/18 11:31:55;;;;;;;9.68;5.13;;;;;;;14.47;57.71;99797.25;5040828;28;20107;-66
2023/10/18 11:34:25;;;;;;;7.15;4.00;;;;;;;14.58;57.93;99800.25;5032985;28;20582;-64
2023/10/18 11:36:54;;;;;;;8.02;4.15;;;;;;;14.64;59.03;99815.63;5029118;28;20048;-64
2023/10/18 11:39:23;;;;;;;7.70;3.92;;;;;;;14.74;57.33;99779.69;5031672;28;20107;-64
2023/10/18 11:41:49;;;;;;;7.88;3.85;;;;;;;14.84;58.34;99787.97;5035552;28;20118;-65
2023/10/18 11:44:31;;;;;;;7.65;4.00;;;;;;;14.81;56.78;99765.50;5033252;28;20125;-65
2023/10/18 11:47:11;;;;;;;5.72;3.70;;;;;;;14.77;56.75;99757.91;5038002;28;20040;-64
2023/10/18 11:49:40;;;;;;;11.27;3.72;;;;;;;14.89;57.40;99766.03;5018036;28;20037;-64
2023/10/18 11:52:21;;;;;;;6.80;3.88;;;;;;;14.96;57.52;99746.63;5037574;28;20037;-64
2023/10/18 11:54:50;;;;;;;7.28;3.70;;;;;;;15.03;57.05;99742.03;5055988;28;20063;-64
2023/10/18 11:57:30;;;;;;;8.27;3.80;;;;;;;15.01;56.44;99721.28;5054685;28;20033;-64
2023/10/18 12:03:05;;;;;;;7.63;3.92;;;;;;;14.96;56.42;99709.41;4955041;28;20050;-65
2023/10/18 12:05:31;;;;;;;9.25;3.80;;;;;;;15.13;56.54;99723.38;4953411;28;20045;-65
2023/10/18 12:08:01;;;;;;;8.95;3.58;;;;;;;15.25;57.47;99723.72;4993646;28;21006;-65
2023/10/18 12:10:34;;;;;;;5.45;3.42;;;;;;;15.45;57.40;99728.91;5039203;28;20280;-64
2023/10/18 12:12:59;;;;;;;6.95;3.20;;;;;;;15.50;56.13;99703.50;5056046;28;20130;-65
2023/10/18 12:15:30;;;;;;;5.05;3.40;;;;;;;15.54;57.47;99708.50;5056227;28;20115;-65
2023/10/18 12:17:56;;;;;;;5.85;3.22;;;;;;;15.47;55.38;99665.41;5055333;28;20037;-65
2023/10/18 12:20:34;;;;;;;10.48;3.35;;;;;;;15.43;55.71;99660.44;5054619;28;22058;-65
2023/10/18 12:23:02;;;;;;;10.45;3.75;;;;;;;15.54;56.28;99673.78;5056295;28;20055;-65
2023/10/18 12:25:28;;;;;;;8.38;3.55;;;;;;;15.61;55.66;99665.63;5057170;28;20101;-63
2023/10/18 12:27:53;;;;;;;5.43;3.30;;;;;;;15.45;56.09;99655.97;5055969;28;20786;-62
2023/10/18 12:30:30;;;;;;;4.80;3.17;;;;;;;15.47;56.25;99660.19;5055525;28;20757;-62
2023/10/18 12:32:57;;;;;;;9.50;3.60;;;;;;;15.55;56.31;99658.06;5056726;28;20372;-63
2023/10/18 12:35:28;;;;;;;6.82;2.80;;;;;;;15.54;56.11;99652.97;5060644;28;20036;-63
2023/10/18 12:37:54;;;;;;;4.63;2.95;;;;;;;15.48;56.35;99643.66;5059625;28;20509;-64
2023/10/18 12:40:40;;;;;;;6.63;3.35;;;;;;;15.36;57.13;99641.63;5061352;28;20067;-63
2023/10/18 12:43:07;;;;;;;5.68;2.88;;;;;;;15.48;57.38;99648.88;5059383;28;20041;-64
2023/10/18 12:45:42;;;;;;;5.68;3.28;;;;;;;15.44;57.91;99654.28;5062089;28;20032;-64
2023/10/18 12:48:14;;;;;;;5.35;3.25;;;;;;;15.50;57.28;99654.00;5059295;28;20137;-64
2023/10/18 12:50:45;;;;;;;4.38;3.08;;;;;;;15.42;57.00;99648.31;5054216;28;20052;-64
2023/10/18 12:53:17;;;;;;;6.53;3.33;;;;;;;15.36;58.78;99666.81;5064106;28;20049;-64
2023/10/18 12:55:46;;;;;;;9.32;3.15;;;;;;;15.37;58.00;99642.47;5060471;28;20430;-64
2023/10/18 12:58:18;;;;;;;5.28;2.97;;;;;;;15.36;58.92;99659.00;5060076;28;20190;-63